createdAt,value
2018-06-30T00:01:49.832Z,47.63
2018-06-30T00:04:18.551Z,47.68
2018-06-30T00:06:47.264Z,47.99
2018-06-30T00:09:15.917Z,48.42
2018-06-30T00:11:44.569Z,48.31
2018-06-30T00:14:13.285Z,48.19
2018-06-30T00:16:41.880Z,47.68
2018-06-30T00:19:10.600Z,48.50
2018-06-30T00:21:39.241Z,48.69
2018-06-30T00:24:07.954Z,47.94
2018-06-30T00:26:36.658Z,48.45
2018-06-30T00:29:05.387Z,47.46
2018-06-30T00:31:35.008Z,47.79
2018-06-30T00:34:05.811Z,47.46
2018-06-30T00:36:34.414Z,47.84
2018-06-30T00:39:04.213Z,47.52
2018-06-30T00:41:33.180Z,48.14
2018-06-30T00:44:01.799Z,48.28
2018-06-30T00:46:30.466Z,47.69
2018-06-30T00:48:59.104Z,47.54
2018-06-30T00:51:27.705Z,47.24
2018-06-30T00:53:57.137Z,47.97
2018-06-30T00:56:25.827Z,47.53
2018-06-30T00:58:54.427Z,47.91
2018-06-30T01:01:23.384Z,47.97
2018-06-30T01:03:52.044Z,48.20
2018-06-30T01:06:20.734Z,48.76
2018-06-30T01:08:50.895Z,48.58
2018-06-30T01:11:19.581Z,48.73
2018-06-30T01:13:48.356Z,48.70
2018-06-30T01:16:17.151Z,49.01
2018-06-30T01:18:46.409Z,48.94
2018-06-30T01:21:15.700Z,49.53
2018-06-30T01:23:45.829Z,49.63
2018-06-30T01:26:14.926Z,49.92
2018-06-30T01:28:44.239Z,49.01
2018-06-30T01:31:19.515Z,50.04
2018-06-30T01:33:49.458Z,49.26
2018-06-30T01:36:19.664Z,49.92
2018-06-30T01:38:49.129Z,50.36
2018-06-30T01:41:17.789Z,50.78
2018-06-30T01:43:47.225Z,50.60
2018-06-30T01:46:16.597Z,50.00
2018-06-30T01:48:46.046Z,50.11
2018-06-30T01:51:14.681Z,50.49
2018-06-30T01:53:44.064Z,50.86
2018-06-30T01:56:12.744Z,51.05
2018-06-30T01:58:43.209Z,50.81
2018-06-30T02:01:12.573Z,50.96
2018-06-30T02:03:41.242Z,50.49
2018-06-30T02:06:10.158Z,50.35
2018-06-30T02:08:39.977Z,50.99
2018-06-30T02:11:09.723Z,51.34
2018-06-30T02:13:40.020Z,50.89
2018-06-30T02:16:09.771Z,51.36
2018-06-30T02:18:39.899Z,51.49
2018-06-30T02:21:09.945Z,51.45
2018-06-30T02:23:39.740Z,51.24
2018-06-30T02:26:09.826Z,50.77
2018-06-30T02:28:41.843Z,51.45
2018-06-30T02:31:11.210Z,51.14
2018-06-30T02:33:39.827Z,50.97
2018-06-30T02:36:10.572Z,50.86
2018-06-30T02:38:39.345Z,51.11
2018-06-30T02:41:09.166Z,51.20
2018-06-30T02:43:38.634Z,51.43
2018-06-30T02:46:08.021Z,51.15
2018-06-30T02:48:36.631Z,50.93
2018-06-30T02:51:05.253Z,50.67
2018-06-30T02:53:34.008Z,51.32
2018-06-30T02:56:04.570Z,51.08
2018-06-30T02:58:33.909Z,50.81
2018-06-30T03:01:04.169Z,50.73
2018-06-30T03:03:34.617Z,51.03
2018-06-30T03:06:03.254Z,51.19
2018-06-30T03:08:33.192Z,50.60
2018-06-30T03:11:02.085Z,50.75
2018-06-30T03:13:30.722Z,50.82
2018-06-30T03:15:59.755Z,50.89
2018-06-30T03:18:28.608Z,50.92
2018-06-30T03:20:57.268Z,50.34
2018-06-30T03:23:25.895Z,51.09
2018-06-30T03:25:54.638Z,51.16
2018-06-30T03:28:23.337Z,50.98
2018-06-30T03:30:52.009Z,50.33
2018-06-30T03:33:20.682Z,50.87
2018-06-30T03:35:51.074Z,50.36
2018-06-30T03:38:20.618Z,49.85
2018-06-30T03:40:50.757Z,50.66
2018-06-30T03:43:20.448Z,50.37
2018-06-30T03:45:50.058Z,50.17
2018-06-30T03:48:18.802Z,50.15
2018-06-30T03:50:47.430Z,50.26
2018-06-30T03:53:16.070Z,49.90
2018-06-30T03:55:44.922Z,49.65
2018-06-30T03:58:13.596Z,50.07
2018-06-30T04:00:42.216Z,50.19
2018-06-30T04:03:10.818Z,50.06
2018-06-30T04:05:39.800Z,49.25
2018-06-30T04:08:08.435Z,49.36
2018-06-30T04:10:37.020Z,50.19
2018-06-30T04:13:06.234Z,49.64
2018-06-30T04:15:35.873Z,50.17
2018-06-30T04:18:05.394Z,49.23
2018-06-30T04:20:34.064Z,49.48
2018-06-30T04:23:02.696Z,49.27
2018-06-30T04:25:31.459Z,49.40
2018-06-30T04:28:00.117Z,48.25
2018-06-30T04:30:29.252Z,48.71
2018-06-30T04:32:58.073Z,49.18
2018-06-30T04:35:26.841Z,48.22
2018-06-30T04:37:55.949Z,48.34
2018-06-30T04:40:26.317Z,48.86
2018-06-30T04:42:55.135Z,48.64
2018-06-30T04:45:24.045Z,48.82
2018-06-30T04:47:53.939Z,48.90
2018-06-30T04:50:23.071Z,49.05
2018-06-30T04:52:51.851Z,47.81
2018-06-30T04:55:21.426Z,48.45
2018-06-30T04:57:51.106Z,47.14
2018-06-30T05:00:20.261Z,48.30
2018-06-30T05:02:49.642Z,47.92
2018-06-30T05:05:18.650Z,48.60
2018-06-30T05:07:47.576Z,48.40
2018-06-30T05:10:16.189Z,48.63
2018-06-30T05:12:44.814Z,47.23
2018-06-30T05:15:13.402Z,48.39
2018-06-30T05:17:42.590Z,49.73
2018-06-30T05:20:11.213Z,48.90
2018-06-30T05:22:39.864Z,48.28
2018-06-30T05:25:08.503Z,48.75
2018-06-30T05:27:37.160Z,49.18
2018-06-30T05:30:06.093Z,48.74
2018-06-30T05:32:34.761Z,48.51
2018-06-30T05:35:04.101Z,48.00
2018-06-30T05:37:33.940Z,48.87
2018-06-30T05:40:02.743Z,48.19
2018-06-30T05:42:31.395Z,49.05
2018-06-30T05:45:01.005Z,48.23
2018-06-30T05:47:30.247Z,48.36
2018-06-30T05:49:59.178Z,49.02
2018-06-30T05:52:27.840Z,49.61
2018-06-30T05:54:56.460Z,48.82
2018-06-30T05:57:25.682Z,47.54
2018-06-30T05:59:54.492Z,47.85
2018-06-30T06:02:23.106Z,46.86
2018-06-30T06:04:53.647Z,46.23
2018-06-30T06:07:22.326Z,44.77
2018-06-30T06:09:51.575Z,45.47
2018-06-30T06:12:21.386Z,45.89
2018-06-30T06:14:50.473Z,45.37
2018-06-30T06:17:19.139Z,45.14
2018-06-30T06:19:47.797Z,45.39
2018-06-30T06:22:18.211Z,45.33
2018-06-30T06:24:47.142Z,44.83
2018-06-30T06:27:16.767Z,44.58
2018-06-30T06:29:46.124Z,44.09
2018-06-30T06:32:16.825Z,43.49
2018-06-30T06:34:45.510Z,43.85
2018-06-30T06:37:14.236Z,43.39
2018-06-30T06:39:43.266Z,43.16
2018-06-30T06:42:12.493Z,43.15
2018-06-30T06:44:41.109Z,43.18
2018-06-30T06:47:10.512Z,41.45
2018-06-30T06:49:40.010Z,42.81
2018-06-30T06:52:08.665Z,42.84
2018-06-30T06:54:37.680Z,41.23
2018-06-30T06:57:06.607Z,39.53
2018-06-30T06:59:35.341Z,41.33
2018-06-30T07:02:04.437Z,39.69
2018-06-30T07:04:33.427Z,40.62
2018-06-30T07:07:02.446Z,38.18
2018-06-30T07:09:38.483Z,38.82
2018-06-30T07:12:07.153Z,38.58
2018-06-30T07:14:37.141Z,38.63
2018-06-30T07:17:05.966Z,36.36
2018-06-30T07:19:34.682Z,36.68
2018-06-30T07:22:04.220Z,36.87
2018-06-30T07:24:33.215Z,35.96
2018-06-30T07:27:01.879Z,34.80
2018-06-30T07:29:30.524Z,32.93
2018-06-30T07:31:59.153Z,32.66
2018-06-30T07:34:28.518Z,32.15
2018-06-30T07:36:57.344Z,30.07
2018-06-30T07:39:26.576Z,29.40
2018-06-30T07:41:55.417Z,29.28
2018-06-30T07:44:30.361Z,28.06
2018-06-30T07:46:59.020Z,29.15
2018-06-30T07:49:27.709Z,27.81
2018-06-30T07:51:56.426Z,27.64
2018-06-30T07:54:25.150Z,26.79
2018-06-30T07:56:54.170Z,26.76
2018-06-30T07:59:22.841Z,27.06
2018-06-30T08:01:51.527Z,28.21
2018-06-30T08:04:20.495Z,27.01
2018-06-30T08:06:49.613Z,26.46
2018-06-30T08:09:18.613Z,27.27
2018-06-30T08:11:47.866Z,27.66
2018-06-30T08:14:16.619Z,27.70
2018-06-30T08:16:45.279Z,26.23
2018-06-30T08:19:14.381Z,25.96
2018-06-30T08:21:43.623Z,25.29
2018-06-30T08:24:12.987Z,25.27
2018-06-30T08:26:41.798Z,25.96
2018-06-30T08:29:10.518Z,26.80
2018-06-30T08:31:39.414Z,27.01
2018-06-30T08:34:08.319Z,27.12
2018-06-30T08:36:36.977Z,26.87
2018-06-30T08:39:09.009Z,27.08
2018-06-30T08:41:37.704Z,28.42
2018-06-30T08:44:06.481Z,28.52
2018-06-30T08:46:35.147Z,28.87
2018-06-30T08:49:04.577Z,28.62
2018-06-30T08:51:33.562Z,28.80
2018-06-30T08:54:02.187Z,27.73
2018-06-30T08:56:30.902Z,28.48
2018-06-30T08:58:59.794Z,27.86
2018-06-30T09:01:28.470Z,26.71
2018-06-30T09:03:57.913Z,26.15
2018-06-30T09:06:26.569Z,25.82
2018-06-30T09:08:55.188Z,26.02
2018-06-30T09:11:23.942Z,27.09
2018-06-30T09:13:52.608Z,27.85
2018-06-30T09:16:21.360Z,28.99
2018-06-30T09:18:50.239Z,29.08
2018-06-30T09:21:18.915Z,30.25
2018-06-30T09:23:47.708Z,30.32
2018-06-30T09:26:16.477Z,29.02
2018-06-30T09:28:45.754Z,29.34
2018-06-30T09:31:14.404Z,28.78
2018-06-30T09:33:43.172Z,29.27
2018-06-30T09:36:11.977Z,28.29
2018-06-30T09:38:40.688Z,28.29
2018-06-30T09:41:09.838Z,27.86
2018-06-30T09:43:38.450Z,28.29
2018-06-30T09:46:07.166Z,28.60
2018-06-30T09:48:35.886Z,28.92
2018-06-30T09:51:04.696Z,30.05
2018-06-30T09:53:33.346Z,30.40
2018-06-30T09:56:02.252Z,30.86
2018-06-30T09:58:31.020Z,31.14
2018-06-30T10:01:05.026Z,31.96
2018-06-30T10:03:33.720Z,31.02
2018-06-30T10:06:02.478Z,30.96
2018-06-30T10:08:31.407Z,31.24
2018-06-30T10:11:00.258Z,31.89
2018-06-30T10:13:29.640Z,31.78
2018-06-30T10:15:58.299Z,31.33
2018-06-30T10:18:26.904Z,31.34
2018-06-30T10:20:56.087Z,30.35
2018-06-30T10:23:24.856Z,30.04
2018-06-30T10:25:53.937Z,29.68
2018-06-30T10:28:23.259Z,29.83
2018-06-30T10:30:52.109Z,30.25
2018-06-30T10:33:21.040Z,29.74
2018-06-30T10:35:50.033Z,30.21
2018-06-30T10:38:19.155Z,30.43
2018-06-30T10:40:47.879Z,29.36
2018-06-30T10:43:16.869Z,30.06
2018-06-30T10:45:45.812Z,29.36
2018-06-30T10:48:14.612Z,28.87
2018-06-30T10:50:43.401Z,28.87
2018-06-30T10:53:12.144Z,29.15
2018-06-30T10:55:41.192Z,27.70
2018-06-30T10:58:10.244Z,26.65
2018-06-30T11:00:39.269Z,26.69
2018-06-30T11:03:07.925Z,27.02
2018-06-30T11:05:36.841Z,26.79
2018-06-30T11:08:05.574Z,27.49
2018-06-30T11:10:34.582Z,27.85
2018-06-30T11:13:03.206Z,27.69
2018-06-30T11:15:31.817Z,26.87
2018-06-30T11:18:00.494Z,26.54
2018-06-30T11:20:29.415Z,27.15
2018-06-30T11:22:58.727Z,28.50
2018-06-30T11:25:27.812Z,29.65
2018-06-30T11:27:56.804Z,29.54
2018-06-30T11:30:25.434Z,29.98
2018-06-30T11:32:54.185Z,28.87
2018-06-30T11:35:23.243Z,28.88
2018-06-30T11:37:52.205Z,29.54
2018-06-30T11:40:20.889Z,30.36
2018-06-30T11:42:49.622Z,29.77
2018-06-30T11:45:18.262Z,28.79
2018-06-30T11:47:49.945Z,28.82
2018-06-30T11:50:19.081Z,27.50
2018-06-30T11:52:48.371Z,28.10
2018-06-30T11:55:17.007Z,26.32
2018-06-30T11:57:46.109Z,27.07
2018-06-30T12:00:14.763Z,27.13
2018-06-30T12:02:43.404Z,26.90
2018-06-30T12:05:12.021Z,24.42
2018-06-30T12:07:41.110Z,22.18
2018-06-30T12:10:10.938Z,19.30
2018-06-30T12:12:39.704Z,17.43
2018-06-30T12:15:08.586Z,18.29
2018-06-30T12:17:37.278Z,19.22
2018-06-30T12:20:06.535Z,20.56
2018-06-30T12:22:35.679Z,23.27
2018-06-30T12:25:04.462Z,23.59
2018-06-30T12:27:33.222Z,25.54
2018-06-30T12:30:01.984Z,27.51
2018-06-30T12:32:30.675Z,27.45
2018-06-30T12:34:59.346Z,28.29
2018-06-30T12:37:27.988Z,28.57
2018-06-30T12:39:56.889Z,29.57
2018-06-30T12:42:25.590Z,28.57
2018-06-30T12:44:54.286Z,28.01
2018-06-30T12:47:23.009Z,28.04
2018-06-30T12:49:52.418Z,27.81
2018-06-30T12:52:21.189Z,22.82
2018-06-30T12:54:50.138Z,18.03
2018-06-30T12:57:18.889Z,14.57
2018-06-30T12:59:48.027Z,12.09
2018-06-30T13:02:16.762Z,12.28
2018-06-30T13:04:45.447Z,13.05
2018-06-30T13:07:14.264Z,15.53
2018-06-30T13:09:42.989Z,16.62
2018-06-30T13:12:12.335Z,15.15
2018-06-30T13:14:41.429Z,13.32
2018-06-30T13:17:10.389Z,11.34
2018-06-30T13:19:40.101Z,11.47
2018-06-30T13:22:08.866Z,10.20
2018-06-30T13:24:37.859Z,8.90
2018-06-30T13:27:06.892Z,8.58
2018-06-30T13:29:35.564Z,10.81
2018-06-30T13:32:04.392Z,13.31
2018-06-30T13:34:33.211Z,15.89
2018-06-30T13:37:01.973Z,18.56
2018-06-30T13:39:30.696Z,20.40
2018-06-30T13:42:00.079Z,21.17
2018-06-30T13:44:30.296Z,22.15
2018-06-30T13:46:59.012Z,24.86
2018-06-30T13:49:28.079Z,24.90
2018-06-30T13:51:56.854Z,25.77
2018-06-30T13:54:25.609Z,26.56
2018-06-30T13:56:54.365Z,25.11
2018-06-30T13:59:23.163Z,24.69
2018-06-30T14:01:51.963Z,22.78
2018-06-30T14:04:20.766Z,22.10
2018-06-30T14:06:49.788Z,20.62
2018-06-30T14:09:18.921Z,17.49
2018-06-30T14:11:47.741Z,15.72
2018-06-30T14:14:16.396Z,14.36
2018-06-30T14:16:45.185Z,14.34
2018-06-30T14:19:13.910Z,16.30
2018-06-30T14:21:42.627Z,17.45
2018-06-30T14:24:11.460Z,19.86
2018-06-30T14:26:40.145Z,21.61
2018-06-30T14:29:08.804Z,23.84
2018-06-30T14:31:37.500Z,24.36
2018-06-30T14:34:06.701Z,26.47
2018-06-30T14:36:36.138Z,27.08
2018-06-30T14:39:09.167Z,27.59
2018-06-30T14:41:38.991Z,26.91
2018-06-30T14:44:08.377Z,27.28
2018-06-30T14:46:39.644Z,26.81
2018-06-30T14:49:08.632Z,26.95
2018-06-30T14:51:37.649Z,27.12
2018-06-30T14:54:06.769Z,28.09
2018-06-30T14:56:35.489Z,27.45
2018-06-30T14:59:05.004Z,28.27
2018-06-30T15:01:35.858Z,28.01
2018-06-30T15:04:11.514Z,26.92
2018-06-30T15:06:40.335Z,27.54
2018-06-30T15:09:13.267Z,27.34
2018-06-30T15:11:43.791Z,27.01
2018-06-30T15:14:13.353Z,27.78
2018-06-30T15:16:42.083Z,27.83
2018-06-30T15:19:11.150Z,27.87
2018-06-30T15:21:39.816Z,27.33
2018-06-30T15:24:09.976Z,27.75
2018-06-30T15:26:38.676Z,27.74
2018-06-30T15:29:07.402Z,27.72
2018-06-30T15:31:36.080Z,28.45
2018-06-30T15:34:05.258Z,27.50
2018-06-30T15:36:34.016Z,27.81
2018-06-30T15:39:02.843Z,27.62
2018-06-30T15:41:32.227Z,27.64
2018-06-30T15:44:01.272Z,28.29
2018-06-30T15:46:29.935Z,29.00
2018-06-30T15:48:58.947Z,29.19
2018-06-30T15:51:28.191Z,29.66
2018-06-30T15:53:56.858Z,29.88
2018-06-30T15:56:25.569Z,34.92
2018-06-30T15:58:54.568Z,34.32
2018-06-30T16:01:23.426Z,35.04
2018-06-30T16:03:52.185Z,39.07
2018-06-30T16:06:21.236Z,34.64
2018-06-30T16:08:50.155Z,36.54
2018-06-30T16:11:18.791Z,36.75
2018-06-30T16:13:47.479Z,34.29
2018-06-30T16:16:16.210Z,32.61
2018-06-30T16:18:44.943Z,31.60
2018-06-30T16:21:14.007Z,34.14
2018-06-30T16:23:42.823Z,32.13
2018-06-30T16:26:11.596Z,32.18
2018-06-30T16:28:40.666Z,31.49
2018-06-30T16:31:09.333Z,31.63
2018-06-30T16:33:38.038Z,32.10
2018-06-30T16:36:06.748Z,32.05
2018-06-30T16:38:35.447Z,31.82
2018-06-30T16:41:04.198Z,32.39
2018-06-30T16:43:33.032Z,31.29
2018-06-30T16:46:01.827Z,32.92
2018-06-30T16:48:30.961Z,32.46
2018-06-30T16:50:59.694Z,31.89
2018-06-30T16:53:28.355Z,33.05
2018-06-30T16:55:57.286Z,31.81
2018-06-30T16:58:26.331Z,31.78
2018-06-30T17:00:55.183Z,30.11
2018-06-30T17:03:24.060Z,30.42
2018-06-30T17:05:52.865Z,29.95
2018-06-30T17:08:21.782Z,30.54
2018-06-30T17:10:51.831Z,30.15
2018-06-30T17:13:21.201Z,30.73
2018-06-30T17:15:50.283Z,30.13
2018-06-30T17:18:19.207Z,30.44
2018-06-30T17:20:48.365Z,30.31
2018-06-30T17:23:17.417Z,30.66
2018-06-30T17:25:47.037Z,30.41
2018-06-30T17:28:16.718Z,30.35
2018-06-30T17:30:46.017Z,31.52
2018-06-30T17:33:14.882Z,31.87
2018-06-30T17:35:44.560Z,30.35
2018-06-30T17:38:13.753Z,30.44
2018-06-30T17:40:44.567Z,29.65
2018-06-30T17:43:13.522Z,29.48
2018-06-30T17:45:42.486Z,29.96
2018-06-30T17:48:11.717Z,30.40
2018-06-30T17:50:40.710Z,30.86
2018-06-30T17:53:10.163Z,30.86
2018-06-30T17:55:40.135Z,30.22
2018-06-30T17:58:10.535Z,30.24
2018-06-30T18:00:40.362Z,30.39
2018-06-30T18:03:09.098Z,30.84
2018-06-30T18:05:38.142Z,30.95
2018-06-30T18:08:06.785Z,31.07
2018-06-30T18:10:35.582Z,31.16
2018-06-30T18:13:04.398Z,31.79
2018-06-30T18:15:33.062Z,31.85
2018-06-30T18:18:02.048Z,31.86
2018-06-30T18:20:31.650Z,31.92
2018-06-30T18:23:00.345Z,32.47
2018-06-30T18:25:29.295Z,31.90
2018-06-30T18:27:58.161Z,30.92
2018-06-30T18:30:26.884Z,31.88
2018-06-30T18:32:55.606Z,31.13
2018-06-30T18:35:24.439Z,31.83
2018-06-30T18:37:53.195Z,32.39
2018-06-30T18:40:22.038Z,32.57
2018-06-30T18:42:50.770Z,32.56
2018-06-30T18:45:19.823Z,33.06
2018-06-30T18:47:48.802Z,33.24
2018-06-30T18:50:17.527Z,33.63
2018-06-30T18:52:46.379Z,33.76
2018-06-30T18:55:15.230Z,34.58
2018-06-30T18:57:44.073Z,33.85
2018-06-30T19:00:13.094Z,34.59
2018-06-30T19:02:42.205Z,35.21
2018-06-30T19:05:10.921Z,35.28
2018-06-30T19:07:39.938Z,35.85
2018-06-30T19:10:09.120Z,35.71
2018-06-30T19:12:41.064Z,36.25
2018-06-30T19:15:09.986Z,36.58
2018-06-30T19:17:38.698Z,36.31
2018-06-30T19:20:07.481Z,36.55
2018-06-30T19:22:36.439Z,36.58
2018-06-30T19:25:05.314Z,37.07
2018-06-30T19:27:34.751Z,37.06
2018-06-30T19:30:03.765Z,37.44
2018-06-30T19:32:33.051Z,37.48
2018-06-30T19:35:01.904Z,36.97
2018-06-30T19:37:30.662Z,37.51
2018-06-30T19:39:59.495Z,37.25
2018-06-30T19:42:28.183Z,37.57
2018-06-30T19:44:57.441Z,37.06
2018-06-30T19:47:26.514Z,37.46
2018-06-30T19:49:57.071Z,37.87
2018-06-30T19:52:25.721Z,37.07
2018-06-30T19:54:54.809Z,36.91
2018-06-30T19:57:23.565Z,37.24
2018-06-30T19:59:52.708Z,37.12
2018-06-30T20:02:21.849Z,36.87
2018-06-30T20:04:50.938Z,36.83
2018-06-30T20:07:19.747Z,37.18
2018-06-30T20:09:48.939Z,37.34
2018-06-30T20:12:18.127Z,37.00
2018-06-30T20:14:46.865Z,37.03
2018-06-30T20:17:15.561Z,37.86
2018-06-30T20:19:44.602Z,36.94
2018-06-30T20:22:13.411Z,36.73
2018-06-30T20:24:42.129Z,37.17
2018-06-30T20:27:10.751Z,37.35
2018-06-30T20:29:39.862Z,37.01
2018-06-30T20:32:08.568Z,36.30
2018-06-30T20:34:37.596Z,36.73
2018-06-30T20:37:06.620Z,36.49
2018-06-30T20:39:35.674Z,36.54
2018-06-30T20:42:04.448Z,36.08
2018-06-30T20:44:33.232Z,36.92
2018-06-30T20:47:02.018Z,37.18
2018-06-30T20:49:31.123Z,36.84
2018-06-30T20:51:59.877Z,36.02
2018-06-30T20:54:28.508Z,36.75
2018-06-30T20:56:57.294Z,37.35
2018-06-30T20:59:26.716Z,36.97
2018-06-30T21:01:56.076Z,38.31
2018-06-30T21:04:25.898Z,37.99
2018-06-30T21:06:55.344Z,37.67
2018-06-30T21:09:24.303Z,38.00
2018-06-30T21:11:52.998Z,36.78
2018-06-30T21:14:21.651Z,38.10
2018-06-30T21:16:50.742Z,37.78
2018-06-30T21:19:21.411Z,37.99
2018-06-30T21:21:50.227Z,38.03
2018-06-30T21:24:19.128Z,38.44
2018-06-30T21:26:49.126Z,38.32
2018-06-30T21:29:17.877Z,39.08
2018-06-30T21:31:46.899Z,39.46
2018-06-30T21:34:15.860Z,39.45
2018-06-30T21:36:44.752Z,40.31
2018-06-30T21:39:14.031Z,40.11
2018-06-30T21:41:43.056Z,39.84
2018-06-30T21:44:12.254Z,40.39
2018-06-30T21:46:41.278Z,40.35
2018-06-30T21:49:10.072Z,40.63
2018-06-30T21:51:38.978Z,40.22
2018-06-30T21:54:08.527Z,40.98
2018-06-30T21:56:37.694Z,41.12
2018-06-30T21:59:06.657Z,41.20
2018-06-30T22:01:35.555Z,40.78
2018-06-30T22:04:04.595Z,41.23
2018-06-30T22:06:33.473Z,41.45
2018-06-30T22:09:02.184Z,41.80
2018-06-30T22:11:31.251Z,41.75
2018-06-30T22:14:00.058Z,41.72
2018-06-30T22:16:28.743Z,41.59
2018-06-30T22:18:57.549Z,41.93
2018-06-30T22:21:26.175Z,42.22
2018-06-30T22:23:55.134Z,41.75
2018-06-30T22:26:23.981Z,42.21
2018-06-30T22:28:52.952Z,41.18
2018-06-30T22:31:21.899Z,42.34
2018-06-30T22:33:50.881Z,42.03
2018-06-30T22:36:19.841Z,42.09
2018-06-30T22:38:48.823Z,42.26
2018-06-30T22:41:17.547Z,41.71
2018-06-30T22:43:46.690Z,41.99
2018-06-30T22:46:15.744Z,42.42
2018-06-30T22:48:44.397Z,42.47
2018-06-30T22:51:13.011Z,42.71
2018-06-30T22:53:41.704Z,42.34
2018-06-30T22:56:10.329Z,42.27
2018-06-30T22:58:39.800Z,42.73
2018-06-30T23:01:08.877Z,42.16
2018-06-30T23:03:37.543Z,42.43
2018-06-30T23:06:06.672Z,42.76
2018-06-30T23:08:41.748Z,42.40
2018-06-30T23:11:10.394Z,43.34
2018-06-30T23:13:39.690Z,43.57
2018-06-30T23:16:08.729Z,43.33
2018-06-30T23:18:37.415Z,43.08
2018-06-30T23:21:06.551Z,42.67
2018-06-30T23:23:36.328Z,42.51
2018-06-30T23:26:05.430Z,42.87
2018-06-30T23:28:34.046Z,42.60
2018-06-30T23:31:03.121Z,42.55
2018-06-30T23:33:31.753Z,43.31
2018-06-30T23:36:01.054Z,43.47
2018-06-30T23:38:30.587Z,43.07
2018-06-30T23:40:59.851Z,43.15
2018-06-30T23:43:28.778Z,43.71
2018-06-30T23:45:57.410Z,43.13
2018-06-30T23:48:26.437Z,43.83
2018-06-30T23:50:55.161Z,44.04
2018-06-30T23:53:23.914Z,43.74
2018-06-30T23:55:52.582Z,44.57
2018-06-30T23:58:21.224Z,44.41
